Time;durP1;ratioP1;P1;durP2;ratioP2;P2;SDS_P1;SDS_P2;PMS_P1;PMS_P2;Temp;Humidity;BMP_temperature;BMP_pressure;BME280_temperature;BME280_humidity;BME280_pressure;Samples;Min_cycle;Max_cycle;Signal;HPM_P1;HPM_P2
2022/01/13 00:00:58;;;;;;;47.42;16.75;;;5.40;99.90;;;;;;5051438;28;20135;-66
2022/01/13 00:03:24;;;;;;;59.20;20.50;;;5.40;99.90;;;;;;5051124;28;20071;-66
2022/01/13 00:05:49;;;;;;;53.83;16.90;;;5.30;99.90;;;;;;5032727;28;20056;-66
2022/01/13 00:08:15;;;;;;;64.65;20.27;;;5.40;99.90;;;;;;5051110;28;20094;-66
2022/01/13 00:10:40;;;;;;;56.53;19.05;;;5.30;99.90;;;;;;5033092;28;20090;-66
2022/01/13 00:13:08;;;;;;;56.70;19.50;;;5.30;99.90;;;;;;5050131;28;20407;-66
2022/01/13 00:15:48;;;;;;;67.40;18.80;;;5.20;99.90;;;;;;5051917;28;20625;-66
2022/01/13 00:18:17;;;;;;;47.13;16.90;;;5.10;99.90;;;;;;5044308;28;20056;-66
2022/01/13 00:26:16;;;;;;;49.90;13.48;;;5.10;99.90;;;;;;5051891;28;20057;-66
2022/01/13 00:28:47;;;;;;;48.28;15.90;;;5.00;99.90;;;;;;5052630;28;20048;-66
2022/01/13 00:31:16;;;;;;;59.95;16.73;;;5.00;99.90;;;;;;5052836;28;20486;-66
2022/01/13 00:33:45;;;;;;;55.05;16.40;;;4.90;99.90;;;;;;5070335;28;20051;-66
2022/01/13 00:36:11;;;;;;;66.40;18.20;;;4.90;99.90;;;;;;5069706;28;20060;-66
2022/01/13 00:38:36;;;;;;;51.40;14.40;;;4.90;99.90;;;;;;5070880;28;20044;-66
2022/01/13 00:41:03;;;;;;;44.97;15.48;;;5.00;99.90;;;;;;5052176;28;20059;-66
2022/01/13 00:43:28;;;;;;;51.10;15.15;;;5.00;99.90;;;;;;5052590;28;20102;-66
2022/01/13 00:45:54;;;;;;;59.35;18.15;;;4.90;99.90;;;;;;5052847;28;20053;-66
2022/01/13 00:48:20;;;;;;;55.55;17.85;;;4.90;99.90;;;;;;5068642;28;20115;-66
2022/01/13 00:50:45;;;;;;;65.45;17.45;;;5.00;99.90;;;;;;5052918;28;20049;-66
2022/01/13 00:53:11;;;;;;;54.38;18.27;;;5.00;99.90;;;;;;5051669;28;20743;-66
2022/01/13 00:55:49;;;;;;;72.32;18.58;;;5.00;99.90;;;;;;5052414;28;20049;-66
2022/01/13 00:58:16;;;;;;;64.57;18.08;;;5.00;99.90;;;;;;5070622;28;20043;-66
2022/01/13 01:00:43;;;;;;;56.88;17.00;;;5.00;99.90;;;;;;5069944;28;20048;-66
2022/01/13 01:03:09;;;;;;;76.60;21.15;;;5.00;99.90;;;;;;5070453;28;20048;-66
2022/01/13 01:05:35;;;;;;;66.10;19.08;;;5.10;99.90;;;;;;5052552;28;20058;-66
2022/01/13 01:08:04;;;;;;;79.05;20.95;;;5.10;99.90;;;;;;5069926;28;20048;-66
2022/01/13 01:10:30;;;;;;;73.10;19.40;;;5.00;99.90;;;;;;5052708;28;20072;-66
2022/01/13 01:12:56;;;;;;;47.55;15.80;;;5.00;99.90;;;;;;5070717;28;20072;-66
2022/01/13 01:15:22;;;;;;;61.30;19.60;;;5.10;99.90;;;;;;5069747;28;20052;-66
2022/01/13 01:17:54;;;;;;;71.28;21.65;;;5.10;99.90;;;;;;5064895;28;20056;-66
2022/01/13 01:20:20;;;;;;;54.47;18.77;;;5.10;99.90;;;;;;5051851;28;20045;-66
2022/01/13 01:25:33;;;;;;;75.82;19.60;;;5.10;99.90;;;;;;5051921;28;20059;-66
2022/01/13 01:28:00;;;;;;;69.70;20.40;;;5.10;99.90;;;;;;5032391;28;20041;-66
2022/01/13 01:30:35;;;;;;;53.83;16.60;;;5.20;99.90;;;;;;5049361;28;20149;-66
2022/01/13 01:33:01;;;;;;;56.60;17.92;;;5.20;99.90;;;;;;5032531;28;20052;-66
2022/01/13 01:35:27;;;;;;;60.70;19.23;;;5.20;99.90;;;;;;5049484;28;20052;-65
2022/01/13 01:37:54;;;;;;;90.53;24.38;;;5.20;99.90;;;;;;5051039;28;20091;-66
2022/01/13 01:40:21;;;;;;;75.57;20.25;;;5.30;99.90;;;;;;5065362;28;20044;-65
2022/01/13 01:42:47;;;;;;;57.28;20.45;;;5.30;99.90;;;;;;5047203;28;20056;-66
2022/01/13 01:45:14;;;;;;;67.85;20.15;;;5.30;99.90;;;;;;5042532;28;20056;-66
2022/01/13 01:47:42;;;;;;;54.85;18.63;;;5.30;99.90;;;;;;5061136;28;20037;-66
2022/01/13 01:50:22;;;;;;;58.22;20.55;;;5.30;99.90;;;;;;5072427;28;20041;-66
2022/01/13 01:52:50;;;;;;;62.38;21.08;;;5.30;99.90;;;;;;5035920;28;20095;-66
2022/01/13 01:55:17;;;;;;;55.85;16.50;;;5.30;99.90;;;;;;5040157;28;20060;-66
2022/01/13 01:57:44;;;;;;;75.50;21.92;;;5.30;99.90;;;;;;5040235;28;20048;-66
2022/01/13 02:00:13;;;;;;;81.90;23.70;;;5.30;99.90;;;;;;5058658;28;20495;-66
2022/01/13 02:02:41;;;;;;;68.78;19.60;;;5.30;99.90;;;;;;5068784;28;20036;-66
2022/01/13 02:05:07;;;;;;;66.97;23.52;;;5.30;99.90;;;;;;5042288;28;20059;-66
2022/01/13 02:07:33;;;;;;;58.47;20.73;;;5.30;99.90;;;;;;5069363;28;20040;-66
2022/01/13 02:09:58;;;;;;;65.07;22.27;;;5.30;99.90;;;;;;5049515;28;20064;-66
2022/01/13 02:12:45;;;;;;;54.35;19.95;;;5.30;99.90;;;;;;5043352;28;20083;-66
2022/01/13 02:17:39;;;;;;;80.78;22.25;;;5.30;99.90;;;;;;5070320;28;20485;-66
2022/01/13 02:20:06;;;;;;;67.90;22.83;;;5.40;99.90;;;;;;5035661;28;20095;-66
2022/01/13 02:22:31;;;;;;;57.33;21.52;;;5.40;99.90;;;;;;5058553;28;20498;-67
2022/01/13 02:24:57;;;;;;;60.90;20.95;;;5.40;99.90;;;;;;5072458;28;20086;-67
2022/01/13 02:27:23;;;;;;;67.50;21.05;;;5.30;99.90;;;;;;5073062;28;20052;-66
2022/01/13 02:29:49;;;;;;;71.97;21.90;;;5.40;99.90;;;;;;5073239;28;20132;-66
2022/01/13 02:32:15;;;;;;;53.55;20.00;;;5.30;99.90;;;;;;5072263;28;20044;-66
2022/01/13 02:34:41;;;;;;;55.38;19.27;;;5.20;99.90;;;;;;5073171;28;20065;-66
2022/01/13 02:37:07;;;;;;;65.97;21.48;;;5.20;99.90;;;;;;5054813;28;20056;-66
2022/01/13 02:39:33;;;;;;;59.58;20.73;;;5.20;99.90;;;;;;5072263;28;20106;-66
2022/01/13 02:42:02;;;;;;;49.47;18.67;;;5.20;99.90;;;;;;5054759;28;20059;-66
2022/01/13 02:44:30;;;;;;;58.28;20.80;;;5.10;99.90;;;;;;5072815;28;20052;-66
2022/01/13 02:47:09;;;;;;;63.95;22.20;;;5.00;99.90;;;;;;5072244;28;20040;-66
2022/01/13 02:49:35;;;;;;;64.70;20.45;;;5.00;99.90;;;;;;5073156;28;20075;-66
2022/01/13 02:52:02;;;;;;;58.35;19.27;;;5.00;99.90;;;;;;5072010;28;20089;-66
2022/01/13 02:54:28;;;;;;;49.83;20.98;;;5.00;99.90;;;;;;5066860;28;20124;-66
2022/01/13 02:56:54;;;;;;;51.35;21.05;;;5.10;99.90;;;;;;5058836;28;20037;-66
2022/01/13 02:59:19;;;;;;;53.53;19.63;;;5.00;99.90;;;;;;5061010;28;20041;-66
2022/01/13 03:01:45;;;;;;;59.83;19.83;;;5.00;99.90;;;;;;5039201;28;20044;-66
2022/01/13 03:04:10;;;;;;;58.65;22.02;;;5.00;99.90;;;;;;5068552;28;20052;-66
2022/01/13 03:06:39;;;;;;;51.45;19.05;;;5.10;99.90;;;;;;5042775;28;20192;-66
2022/01/13 03:09:07;;;;;;;53.08;19.15;;;5.00;99.90;;;;;;5060401;28;20048;-66
2022/01/13 03:11:36;;;;;;;57.35;21.48;;;5.10;99.90;;;;;;5054401;28;20056;-66
2022/01/13 04:20:44;;;;;;;76.10;23.83;;;4.70;99.90;;;;;;5078347;27;20411;-66
2022/01/13 04:23:10;;;;;;;69.40;24.00;;;4.90;99.90;;;;;;5067794;28;20052;-66
2022/01/13 04:25:36;;;;;;;78.63;24.77;;;4.90;99.90;;;;;;5066064;28;20052;-66
2022/01/13 04:28:02;;;;;;;85.70;22.02;;;5.00;99.90;;;;;;5064711;28;20094;-66
2022/01/13 04:30:44;;;;;;;69.32;23.58;;;5.00;99.90;;;;;;5068203;28;20052;-66
2022/01/13 04:33:12;;;;;;;75.10;23.65;;;5.00;99.90;;;;;;5067121;28;20071;-66
2022/01/13 04:35:37;;;;;;;73.47;22.23;;;5.00;99.90;;;;;;5067897;28;20057;-66
2022/01/13 04:38:03;;;;;;;97.90;27.38;;;5.10;99.90;;;;;;5067627;28;20041;-66
2022/01/13 04:40:29;;;;;;;76.28;22.75;;;5.10;99.90;;;;;;5067420;28;20052;-66
2022/01/13 04:42:56;;;;;;;88.55;25.73;;;5.10;99.90;;;;;;5066790;28;20135;-66
2022/01/13 04:45:24;;;;;;;71.53;23.27;;;5.10;99.90;;;;;;5066794;28;20080;-66
2022/01/13 04:47:52;;;;;;;82.35;24.08;;;5.10;99.90;;;;;;5066455;28;20091;-66
2022/01/13 04:50:19;;;;;;;75.25;21.92;;;5.10;99.90;;;;;;5067599;28;20376;-66
2022/01/13 04:52:45;;;;;;;82.97;23.90;;;5.10;99.90;;;;;;5066991;28;20045;-66
2022/01/13 04:55:13;;;;;;;76.43;22.38;;;5.20;99.90;;;;;;5067459;28;20572;-66
2022/01/13 04:57:38;;;;;;;93.93;28.15;;;5.20;99.90;;;;;;5067478;28;20395;-66
2022/01/13 05:00:07;;;;;;;94.18;24.55;;;5.20;99.90;;;;;;5066523;28;20044;-66
2022/01/13 05:02:33;;;;;;;92.97;25.67;;;5.20;99.90;;;;;;5066310;28;20071;-66
2022/01/13 05:04:58;;;;;;;87.88;23.80;;;5.30;99.90;;;;;;5066272;28;20092;-66
2022/01/13 05:07:24;;;;;;;82.85;21.85;;;5.30;99.90;;;;;;5066440;28;20048;-66
2022/01/13 05:09:50;;;;;;;85.72;23.45;;;5.30;99.90;;;;;;5065939;28;20194;-66
2022/01/13 05:12:17;;;;;;;79.57;23.33;;;5.40;99.90;;;;;;5065561;28;20131;-66
2022/01/13 05:14:44;;;;;;;73.47;22.75;;;5.30;99.90;;;;;;5066541;28;20048;-66
2022/01/13 05:17:23;;;;;;;71.63;20.73;;;5.30;99.90;;;;;;5066707;28;20545;-66
2022/01/13 05:20:09;;;;;;;76.18;23.27;;;5.30;99.90;;;;;;5063844;28;20061;-66
2022/01/13 05:22:34;;;;;;;52.55;18.08;;;5.30;99.90;;;;;;5051243;28;20087;-65
2022/01/13 05:25:00;;;;;;;65.95;21.63;;;5.30;99.90;;;;;;5053307;28;20132;-66
2022/01/13 05:27:27;;;;;;;73.30;20.10;;;5.30;99.90;;;;;;5051443;28;20138;-66
2022/01/13 05:29:52;;;;;;;88.47;24.63;;;5.30;99.90;;;;;;5053580;28;20052;-66
2022/01/13 05:32:18;;;;;;;92.47;25.48;;;5.30;99.90;;;;;;5051353;28;20045;-66
2022/01/13 05:34:43;;;;;;;83.38;23.77;;;5.30;99.90;;;;;;5051871;28;20032;-66
2022/01/13 05:37:09;;;;;;;98.03;26.30;;;5.30;99.90;;;;;;5051834;28;20053;-66
2022/01/13 05:39:34;;;;;;;89.93;25.65;;;5.30;99.90;;;;;;5053469;28;20041;-66
2022/01/13 05:42:00;;;;;;;81.72;25.17;;;5.40;99.90;;;;;;5053184;28;20041;-66
2022/01/13 05:44:26;;;;;;;64.82;20.58;;;6.10;99.90;;;;;;5052197;28;20049;-66
2022/01/13 05:46:51;;;;;;;94.40;27.38;;;5.50;99.90;;;;;;5052112;28;20045;-66
2022/01/13 05:49:17;;;;;;;78.22;22.67;;;5.40;99.90;;;;;;5052385;28;20045;-66
2022/01/13 05:51:42;;;;;;;84.00;25.08;;;5.40;99.90;;;;;;5083097;28;20080;-66
2022/01/13 05:54:08;;;;;;;77.75;20.25;;;5.50;99.90;;;;;;5051741;28;20045;-66
2022/01/13 05:56:33;;;;;;;88.20;25.77;;;5.50;99.90;;;;;;5051855;28;20103;-66
2022/01/13 05:58:59;;;;;;;98.05;26.83;;;5.50;99.90;;;;;;5053257;28;20402;-66
2022/01/13 06:01:24;;;;;;;109.47;29.25;;;5.50;99.90;;;;;;5052711;28;20056;-66
2022/01/13 06:03:50;;;;;;;104.40;29.48;;;5.60;99.90;;;;;;5045836;28;20040;-66
2022/01/13 06:06:15;;;;;;;104.82;29.27;;;5.60;99.90;;;;;;5052723;28;20049;-66
2022/01/13 06:08:41;;;;;;;85.97;26.02;;;5.60;99.90;;;;;;5050817;28;20697;-66
2022/01/13 06:11:06;;;;;;;103.15;28.70;;;5.60;99.90;;;;;;5047673;28;20085;-66
2022/01/13 06:13:32;;;;;;;87.20;26.33;;;5.60;99.90;;;;;;5048299;28;20044;-66
2022/01/13 06:15:57;;;;;;;80.47;24.48;;;5.60;99.90;;;;;;5037973;28;20048;-66
2022/01/13 06:18:25;;;;;;;211.75;36.80;;;5.60;99.90;;;;;;5051611;28;20041;-66
2022/01/13 06:20:51;;;;;;;76.05;23.90;;;5.70;99.90;;;;;;5052756;28;20090;-66
2022/01/13 06:23:17;;;;;;;82.20;24.02;;;5.70;99.90;;;;;;5050871;28;20147;-66
2022/01/13 06:25:43;;;;;;;137.30;28.05;;;5.70;99.90;;;;;;5052150;28;20052;-66
2022/01/13 06:28:09;;;;;;;92.80;28.48;;;5.60;99.90;;;;;;5050753;28;20056;-66
2022/01/13 06:30:34;;;;;;;83.05;26.08;;;5.70;99.90;;;;;;5049060;28;20470;-66
2022/01/13 06:33:01;;;;;;;986.80;163.55;;;5.70;99.90;;;;;;5048992;28;20368;-66
2022/01/13 06:35:26;;;;;;;240.18;37.42;;;5.70;99.90;;;;;;5052137;28;20055;-66
2022/01/13 06:37:52;;;;;;;225.63;41.90;;;5.70;99.90;;;;;;5036135;28;20045;-66
2022/01/13 06:40:18;;;;;;;135.13;33.20;;;5.70;99.90;;;;;;5030992;28;20037;-66
2022/01/13 06:42:44;;;;;;;94.13;31.17;;;5.80;99.90;;;;;;5032315;28;20060;-66
2022/01/13 06:45:10;;;;;;;82.80;29.02;;;5.80;99.90;;;;;;5034108;28;20041;-68
2022/01/13 06:47:38;;;;;;;77.95;26.02;;;5.80;99.90;;;;;;5051798;28;20139;-66
2022/01/13 06:50:04;;;;;;;104.28;31.73;;;5.70;99.90;;;;;;5044492;28;20142;-66
2022/01/13 06:52:29;;;;;;;92.15;30.15;;;5.80;99.90;;;;;;5051486;28;20475;-66
2022/01/13 06:54:55;;;;;;;92.72;27.25;;;5.80;99.90;;;;;;5084214;28;20076;-66
2022/01/13 06:57:20;;;;;;;97.97;28.00;;;5.70;99.90;;;;;;5050722;28;20081;-66
2022/01/13 06:59:47;;;;;;;84.05;28.02;;;5.80;99.90;;;;;;5050214;28;20087;-66
2022/01/13 07:02:13;;;;;;;597.35;83.07;;;5.80;99.90;;;;;;5050258;28;20064;-66
2022/01/13 07:04:39;;;;;;;412.52;54.95;;;5.80;99.90;;;;;;5084349;28;20053;-65
2022/01/13 07:07:05;;;;;;;121.60;33.10;;;5.80;99.90;;;;;;5050735;28;20052;-65
2022/01/13 07:09:31;;;;;;;90.38;30.05;;;5.80;99.90;;;;;;5050172;28;20098;-66
2022/01/13 07:11:56;;;;;;;99.30;34.80;;;5.80;99.90;;;;;;5046855;28;20743;-66
2022/01/13 07:14:22;;;;;;;135.57;35.10;;;5.80;99.90;;;;;;5048391;28;20049;-66
2022/01/13 07:16:48;;;;;;;71.15;29.52;;;5.80;99.90;;;;;;5049145;28;20071;-66
2022/01/13 07:19:15;;;;;;;110.43;33.92;;;5.90;99.90;;;;;;5051246;28;20392;-66
2022/01/13 07:21:42;;;;;;;79.90;27.52;;;5.90;99.90;;;;;;5049575;28;20052;-66
2022/01/13 07:24:08;;;;;;;91.78;31.23;;;5.90;99.90;;;;;;5050954;28;20048;-66
2022/01/13 07:26:34;;;;;;;85.25;30.13;;;5.90;99.90;;;;;;5050855;28;20495;-66
2022/01/13 07:28:59;;;;;;;145.13;36.17;;;6.00;99.90;;;;;;5081569;28;20049;-66
2022/01/13 07:31:25;;;;;;;102.05;34.42;;;6.00;99.90;;;;;;5071394;28;20491;-66
2022/01/13 07:33:51;;;;;;;89.40;29.83;;;6.10;99.90;;;;;;5040161;28;20127;-66
2022/01/13 07:36:16;;;;;;;91.13;29.17;;;6.10;99.90;;;;;;5049051;28;20049;-66
2022/01/13 07:38:42;;;;;;;71.70;27.13;;;6.10;99.90;;;;;;5049096;28;20044;-66
2022/01/13 07:41:08;;;;;;;87.88;31.15;;;6.00;99.90;;;;;;5048233;28;20057;-67
2022/01/13 07:43:33;;;;;;;99.53;33.45;;;6.00;99.90;;;;;;5050298;28;20037;-67
2022/01/13 07:45:59;;;;;;;96.93;34.13;;;6.10;99.90;;;;;;5047694;28;20124;-68
2022/01/13 07:48:25;;;;;;;77.13;30.33;;;6.00;99.90;;;;;;5069589;28;20479;-67
2022/01/13 07:50:52;;;;;;;93.03;31.58;;;6.00;99.90;;;;;;5048827;28;20411;-67
2022/01/13 07:53:18;;;;;;;93.47;31.98;;;6.10;99.90;;;;;;5048368;28;20528;-68
2022/01/13 07:55:44;;;;;;;75.72;27.80;;;6.10;99.90;;;;;;5048166;28;20041;-67
2022/01/13 07:58:10;;;;;;;84.15;30.73;;;6.10;99.90;;;;;;5082322;28;20144;-68
2022/01/13 08:00:37;;;;;;;111.40;35.25;;;6.10;99.90;;;;;;5048395;28;20048;-68
2022/01/13 08:03:03;;;;;;;92.57;33.67;;;6.10;99.90;;;;;;5081831;28;20044;-68
2022/01/13 08:05:29;;;;;;;84.03;30.83;;;6.10;99.90;;;;;;5047189;28;20136;-68
2022/01/13 08:07:54;;;;;;;83.40;33.15;;;6.10;99.90;;;;;;5049732;28;20063;-68
2022/01/13 08:10:20;;;;;;;81.90;30.92;;;6.10;99.90;;;;;;5048380;28;20044;-68
2022/01/13 08:12:46;;;;;;;75.00;30.98;;;6.10;99.90;;;;;;5045246;28;20052;-68
2022/01/13 08:15:14;;;;;;;97.20;32.20;;;6.10;99.90;;;;;;5048906;28;20060;-68
2022/01/13 08:20:31;;;;;;;101.13;33.13;;;6.10;99.90;;;;;;5049311;28;20053;-68
2022/01/13 08:22:57;;;;;;;82.03;32.35;;;6.10;99.90;;;;;;5050584;28;20048;-68
2022/01/13 08:25:24;;;;;;;75.38;28.70;;;6.10;99.90;;;;;;5048936;28;20549;-68
2022/01/13 08:27:49;;;;;;;90.63;32.15;;;6.00;99.90;;;;;;5049380;28;20483;-68
2022/01/13 08:30:15;;;;;;;78.47;29.85;;;6.00;99.90;;;;;;5047604;28;20041;-68
2022/01/13 08:32:41;;;;;;;72.75;26.48;;;6.10;99.90;;;;;;5050591;28;20103;-68
2022/01/13 08:35:08;;;;;;;110.80;30.30;;;6.10;99.90;;;;;;5048796;28;20557;-68
2022/01/13 08:37:36;;;;;;;70.10;26.45;;;6.10;99.90;;;;;;5049994;28;20057;-68
2022/01/13 08:40:08;;;;;;;82.30;28.63;;;6.10;99.90;;;;;;5082841;28;20079;-68
2022/01/13 08:42:34;;;;;;;70.65;28.55;;;6.10;99.90;;;;;;5049602;28;20122;-68
2022/01/13 08:45:01;;;;;;;80.18;28.35;;;6.00;99.90;;;;;;5049952;28;20132;-68
2022/01/13 08:47:27;;;;;;;77.07;26.88;;;6.00;99.90;;;;;;5049953;28;20095;-68
2022/01/13 08:49:53;;;;;;;71.22;26.65;;;6.10;99.90;;;;;;5041427;28;20479;-68
2022/01/13 08:52:18;;;;;;;76.88;29.85;;;6.10;99.90;;;;;;5048350;28;20037;-70
2022/01/13 08:54:46;;;;;;;67.10;24.30;;;6.10;99.90;;;;;;5050601;28;20132;-70
2022/01/13 08:57:12;;;;;;;65.07;27.17;;;6.10;99.90;;;;;;5085806;28;20106;-69
2022/01/13 08:59:38;;;;;;;85.75;31.95;;;6.10;99.90;;;;;;5051113;28;20052;-69
2022/01/13 09:02:04;;;;;;;70.45;29.20;;;6.10;99.90;;;;;;5053044;28;20136;-70
2022/01/13 09:04:29;;;;;;;75.90;27.38;;;6.10;99.90;;;;;;5053322;28;20124;-67
2022/01/13 09:06:55;;;;;;;69.28;29.80;;;6.20;99.90;;;;;;5052462;28;20053;-70
2022/01/13 09:09:21;;;;;;;72.10;27.70;;;6.20;99.90;;;;;;5051484;28;20045;-71
2022/01/13 09:11:47;;;;;;;70.15;26.75;;;6.20;99.90;;;;;;5052958;28;20045;-73
2022/01/13 09:14:13;;;;;;;142.57;33.08;;;6.20;99.90;;;;;;5050569;28;20106;-71
2022/01/13 09:16:44;;;;;;;66.78;29.63;;;6.20;99.90;;;;;;5071579;28;20041;-71
2022/01/13 09:19:12;;;;;;;87.57;31.73;;;6.20;99.90;;;;;;5050270;28;20549;-71
2022/01/13 09:21:43;;;;;;;62.53;26.40;;;6.20;99.90;;;;;;5050704;28;20442;-71
2022/01/13 09:24:14;;;;;;;69.70;28.45;;;6.20;99.90;;;;;;5083211;28;20110;-71
2022/01/13 09:26:41;;;;;;;68.32;30.10;;;6.20;99.90;;;;;;5040032;28;20046;-71
2022/01/13 09:29:08;;;;;;;61.90;28.58;;;6.20;99.90;;;;;;5037773;28;20048;-71
2022/01/13 09:31:35;;;;;;;61.30;27.67;;;6.20;99.90;;;;;;5050695;28;20048;-72
2022/01/13 09:34:04;;;;;;;71.85;31.58;;;6.20;99.90;;;;;;5051552;28;20082;-72
2022/01/13 09:36:31;;;;;;;60.22;29.35;;;6.30;99.90;;;;;;5045111;28;20064;-71
2022/01/13 09:39:01;;;;;;;67.80;31.15;;;6.30;99.90;;;;;;5051440;28;20049;-71
2022/01/13 09:41:30;;;;;;;50.80;26.50;;;6.30;99.90;;;;;;5049352;28;20065;-71
2022/01/13 09:43:57;;;;;;;67.53;28.50;;;6.30;99.90;;;;;;5051980;28;20414;-71
2022/01/13 09:46:26;;;;;;;70.75;28.60;;;6.30;99.90;;;;;;5050941;28;20059;-72
2022/01/13 09:48:53;;;;;;;58.00;26.08;;;6.30;99.90;;;;;;5050182;28;20049;-72
2022/01/13 09:51:18;;;;;;;56.38;27.88;;;6.40;99.90;;;;;;5050780;28;20048;-72
2022/01/13 09:53:44;;;;;;;70.20;32.90;;;6.30;99.90;;;;;;5050691;28;20048;-72
2022/01/13 09:56:10;;;;;;;82.88;33.25;;;6.40;99.90;;;;;;5051438;28;20052;-72
2022/01/13 09:58:36;;;;;;;50.38;27.73;;;6.40;99.90;;;;;;5050425;28;20132;-72
2022/01/13 10:01:03;;;;;;;69.47;31.73;;;6.40;99.90;;;;;;5049707;28;20127;-72
2022/01/13 10:03:29;;;;;;;61.15;29.90;;;6.50;99.90;;;;;;5051580;28;20048;-72
2022/01/13 10:06:01;;;;;;;60.40;30.20;;;6.50;99.90;;;;;;5052012;28;20048;-72
2022/01/13 10:08:42;;;;;;;74.47;33.08;;;6.40;99.90;;;;;;5050577;28;20080;-72
2022/01/13 10:11:36;;;;;;;53.38;25.60;;;6.50;99.90;;;;;;5050309;28;20063;-72
2022/01/13 10:14:02;;;;;;;50.05;25.08;;;6.50;99.90;;;;;;5043976;28;20056;-72
2022/01/13 10:16:28;;;;;;;62.25;30.02;;;6.50;99.90;;;;;;5037083;28;20056;-72
2022/01/13 10:18:54;;;;;;;49.42;28.02;;;6.50;99.90;;;;;;5050348;28;20049;-72
2022/01/13 10:21:20;;;;;;;57.28;28.30;;;6.50;99.90;;;;;;5049757;28;20103;-72
2022/01/13 10:24:09;;;;;;;57.15;28.05;;;6.60;99.90;;;;;;5043308;28;20073;-72
2022/01/13 10:26:37;;;;;;;53.53;28.15;;;6.60;99.90;;;;;;5047801;28;20162;-72
2022/01/13 10:29:08;;;;;;;51.55;27.73;;;6.50;99.90;;;;;;5049585;28;20053;-72
2022/01/13 10:32:03;;;;;;;65.15;30.80;;;6.60;99.90;;;;;;5050997;28;20398;-72
2022/01/13 10:34:29;;;;;;;62.03;32.17;;;6.60;99.90;;;;;;5041664;28;20087;-72
2022/01/13 10:36:59;;;;;;;60.60;29.30;;;6.60;99.90;;;;;;5046652;28;20487;-73
2022/01/13 10:39:43;;;;;;;69.10;31.75;;;6.50;99.90;;;;;;5045701;28;20072;-72
2022/01/13 10:42:20;;;;;;;54.95;28.27;;;6.70;99.90;;;;;;5049317;28;20095;-73
2022/01/13 10:44:54;;;;;;;63.72;33.03;;;6.60;99.90;;;;;;5049592;28;20053;-71
2022/01/13 10:47:20;;;;;;;61.92;29.95;;;6.60;99.90;;;;;;5050086;28;20060;-72
2022/01/13 10:49:50;;;;;;;63.33;29.10;;;6.60;99.90;;;;;;5050154;28;20072;-68
2022/01/13 10:52:18;;;;;;;57.78;33.60;;;6.60;99.90;;;;;;5049255;28;20124;-70
2022/01/13 10:54:44;;;;;;;61.60;29.60;;;6.70;99.90;;;;;;5050576;28;20036;-69
2022/01/13 10:57:17;;;;;;;55.47;28.33;;;6.60;99.90;;;;;;5049086;28;20109;-70
2022/01/13 10:59:43;;;;;;;61.55;28.67;;;6.60;99.90;;;;;;5049664;28;20049;-68
2022/01/13 11:02:10;;;;;;;71.10;30.00;;;6.60;99.90;;;;;;5049850;28;20072;-67
2022/01/13 11:04:36;;;;;;;55.97;26.58;;;6.60;99.90;;;;;;5050212;28;20052;-67
2022/01/13 11:07:16;;;;;;;68.78;30.50;;;6.60;99.90;;;;;;5049532;28;20037;-67
2022/01/13 11:09:42;;;;;;;59.38;29.75;;;6.70;99.90;;;;;;5051668;28;20075;-67
2022/01/13 11:12:13;;;;;;;56.42;29.70;;;6.60;99.90;;;;;;5049534;28;20052;-67
2022/01/13 11:14:43;;;;;;;64.25;31.55;;;6.70;99.90;;;;;;5051423;28;20538;-67
2022/01/13 11:17:12;;;;;;;60.80;30.17;;;6.70;99.90;;;;;;5051269;28;20056;-68
2022/01/13 11:19:47;;;;;;;49.03;26.55;;;6.70;99.90;;;;;;5048465;28;20056;-67
2022/01/13 11:22:13;;;;;;;55.47;30.75;;;6.70;99.90;;;;;;5051093;28;20053;-67
2022/01/13 11:24:39;;;;;;;60.45;31.85;;;6.70;99.90;;;;;;5050117;28;20056;-67
2022/01/13 11:27:06;;;;;;;54.30;29.50;;;6.80;99.90;;;;;;5049017;28;20049;-67
2022/01/13 11:29:36;;;;;;;52.58;27.73;;;6.80;99.90;;;;;;5051290;28;20372;-67
2022/01/13 11:32:02;;;;;;;53.88;29.98;;;6.80;99.90;;;;;;5049224;28;20053;-67
2022/01/13 11:34:28;;;;;;;50.17;28.95;;;6.80;99.90;;;;;;5050818;28;20041;-67
2022/01/13 11:36:54;;;;;;;51.28;25.80;;;6.80;99.90;;;;;;5048671;28;20051;-68
2022/01/13 11:39:40;;;;;;;38.58;25.17;;;6.80;99.90;;;;;;5042489;28;20609;-68
2022/01/13 11:42:08;;;;;;;45.85;26.17;;;6.80;99.90;;;;;;5048762;28;20056;-69
2022/01/13 11:44:34;;;;;;;40.90;26.42;;;6.80;99.90;;;;;;5049657;28;20041;-68
2022/01/13 11:47:01;;;;;;;44.63;26.60;;;6.80;99.90;;;;;;5049393;28;20053;-68
2022/01/13 11:49:41;;;;;;;53.47;28.92;;;6.80;99.90;;;;;;5049265;28;20083;-68
2022/01/13 11:52:14;;;;;;;49.03;26.08;;;6.80;99.90;;;;;;5050842;28;20064;-68
2022/01/13 11:54:41;;;;;;;49.20;29.00;;;6.80;99.90;;;;;;5049305;28;20441;-68
2022/01/13 11:57:16;;;;;;;41.15;24.90;;;6.80;99.90;;;;;;5048367;28;20162;-68
2022/01/13 12:00:01;;;;;;;48.50;25.63;;;6.80;99.90;;;;;;5049149;28;20514;-68
2022/01/13 12:02:38;;;;;;;53.30;27.15;;;6.80;99.90;;;;;;5048793;28;20447;-68
2022/01/13 12:05:17;;;;;;;48.17;29.60;;;6.80;99.90;;;;;;5048536;28;20049;-68
2022/01/13 12:07:55;;;;;;;47.47;25.70;;;6.80;99.90;;;;;;5083127;28;20053;-68
2022/01/13 12:10:20;;;;;;;98.40;28.75;;;6.90;99.90;;;;;;5048699;28;20102;-67
2022/01/13 12:12:47;;;;;;;41.00;24.80;;;6.80;99.90;;;;;;5049276;28;20053;-66
2022/01/13 12:15:17;;;;;;;41.80;23.38;;;6.80;99.90;;;;;;5048674;28;20060;-67
2022/01/13 12:17:50;;;;;;;41.08;22.05;;;6.80;99.90;;;;;;5049699;28;20045;-67
2022/01/13 12:23:43;;;;;;;39.75;22.42;;;6.90;99.90;;;;;;5046948;28;20041;-67
2022/01/13 12:26:27;;;;;;;;;;;6.90;99.90;;;;;;5038607;28;20037;-67
2022/01/13 12:29:15;;;;;;;45.88;24.88;;;6.90;99.90;;;;;;5048635;28;20013;-66
2022/01/13 12:32:01;;;;;;;43.78;24.83;;;7.00;99.90;;;;;;5051969;28;20179;-66
2022/01/13 12:34:33;;;;;;;45.08;24.83;;;7.00;99.90;;;;;;5054715;28;20056;-66
2022/01/13 12:37:19;;;;;;;44.28;24.77;;;7.10;99.90;;;;;;5086456;28;20044;-67
2022/01/13 12:39:59;;;;;;;37.65;23.38;;;7.10;99.90;;;;;;5053565;28;20437;-66
2022/01/13 12:42:37;;;;;;;39.63;22.33;;;7.20;99.90;;;;;;5052700;28;20079;-66
2022/01/13 12:47:50;;;;;;;44.45;22.55;;;7.30;99.90;;;;;;5053455;28;20406;-66
2022/01/13 12:50:22;;;;;;;40.03;23.48;;;7.30;99.90;;;;;;5053518;28;20057;-66
2022/01/13 12:52:48;;;;;;;42.53;20.52;;;7.30;99.90;;;;;;5052057;28;20057;-66
2022/01/13 12:55:14;;;;;;;36.53;21.58;;;7.40;99.90;;;;;;5053360;28;20045;-67
2022/01/13 12:57:49;;;;;;;35.90;20.48;;;7.40;99.90;;;;;;5053588;28;20449;-67
2022/01/13 13:00:18;;;;;;;40.83;21.02;;;7.40;99.90;;;;;;5054185;28;20052;-68
2022/01/13 13:02:55;;;;;;;39.80;18.52;;;7.50;99.90;;;;;;5052661;28;20082;-66
2022/01/13 13:05:30;;;;;;;32.38;19.33;;;7.50;99.90;;;;;;5051394;28;20056;-66
2022/01/13 13:07:55;;;;;;;34.95;18.38;;;7.50;99.90;;;;;;5053807;28;20037;-67
2022/01/13 13:10:21;;;;;;;32.53;16.98;;;7.50;99.90;;;;;;5045556;28;20050;-66
2022/01/13 13:12:52;;;;;;;33.70;17.08;;;7.60;99.90;;;;;;5046358;28;20088;-66
2022/01/13 13:17:45;;;;;;;34.75;17.35;;;7.60;99.90;;;;;;5053410;28;20049;-66
2022/01/13 13:20:30;;;;;;;25.23;16.48;;;7.60;99.90;;;;;;5052832;28;20148;-66
2022/01/13 13:22:59;;;;;;;32.15;16.98;;;7.60;99.90;;;;;;5053628;28;20513;-66
2022/01/13 13:25:29;;;;;;;29.60;16.48;;;7.60;99.90;;;;;;5052840;28;20075;-66
2022/01/13 13:27:55;;;;;;;26.95;15.80;;;7.70;99.90;;;;;;5052904;28;20502;-66
2022/01/13 13:30:20;;;;;;;33.58;15.95;;;7.70;99.90;;;;;;5052965;28;20055;-66
2022/01/13 13:32:52;;;;;;;28.55;15.80;;;7.80;99.90;;;;;;5051273;28;20057;-66
2022/01/13 13:35:18;;;;;;;27.60;16.08;;;7.80;99.90;;;;;;5051504;28;20623;-66
2022/01/13 13:37:45;;;;;;;26.48;14.95;;;7.80;99.90;;;;;;5051749;28;20175;-66
2022/01/13 13:40:22;;;;;;;26.13;13.70;;;7.80;99.90;;;;;;5051604;28;20051;-66
2022/01/13 13:43:06;;;;;;;29.30;15.63;;;7.80;99.90;;;;;;5046055;28;20049;-66
2022/01/13 13:45:32;;;;;;;28.83;15.10;;;7.80;99.90;;;;;;5052000;28;20396;-66
2022/01/13 13:48:00;;;;;;;29.52;14.82;;;7.80;99.90;;;;;;5051592;28;20084;-66
2022/01/13 13:50:26;;;;;;;33.67;15.50;;;7.80;99.90;;;;;;5051329;28;20076;-66
2022/01/13 13:53:11;;;;;;;25.33;16.60;;;7.80;99.90;;;;;;5052938;28;20056;-66
2022/01/13 13:55:38;;;;;;;34.05;15.52;;;7.80;99.90;;;;;;5052811;28;20131;-67
2022/01/13 13:58:04;;;;;;;32.85;15.43;;;7.80;99.90;;;;;;5052789;28;20071;-70
2022/01/13 14:00:29;;;;;;;34.08;16.73;;;7.80;99.90;;;;;;5051407;28;20049;-66
2022/01/13 14:02:57;;;;;;;36.15;15.80;;;7.90;99.90;;;;;;5052362;28;20076;-67
2022/01/13 14:05:34;;;;;;;27.60;15.15;;;7.90;99.90;;;;;;5052688;28;20056;-66
2022/01/13 14:08:09;;;;;;;28.88;14.63;;;7.90;99.90;;;;;;5052152;28;20044;-66
2022/01/13 14:10:36;;;;;;;25.42;14.55;;;7.90;99.90;;;;;;5051820;28;20052;-66